sensor_id;sensor_type;location;lat;lon;timestamp;pressure;altitude;pressure_sealevel;temperature;humidity
71424;BME280;59240;51.370;-0.486;2022-10-22T00:01:00;100247.44;;;14.01;100.00
71424;BME280;59240;51.370;-0.486;2022-10-22T00:03:27;100256.22;;;14.00;100.00
71424;BME280;59240;51.370;-0.486;2022-10-22T00:05:53;100252.09;;;13.94;100.00
71424;BME280;59240;51.370;-0.486;2022-10-22T00:08:20;100254.75;;;13.93;100.00
71424;BME280;59240;51.370;-0.486;2022-10-22T00:10:47;100266.69;;;14.00;100.00
71424;BME280;59240;51.370;-0.486;2022-10-22T00:13:14;100264.91;;;14.01;100.00
71424;BME280;59240;51.370;-0.486;2022-10-22T00:15:40;100270.06;;;14.02;100.00
71424;BME280;59240;51.370;-0.486;2022-10-22T00:18:07;100271.91;;;14.00;100.00
71424;BME280;59240;51.370;-0.486;2022-10-22T00:20:33;100274.53;;;14.00;100.00
71424;BME280;59240;51.370;-0.486;2022-10-22T00:23:00;100279.78;;;14.00;100.00
71424;BME280;59240;51.370;-0.486;2022-10-22T00:25:27;100285.06;;;13.99;100.00
71424;BME280;59240;51.370;-0.486;2022-10-22T00:27:53;100282.69;;;13.92;100.00
71424;BME280;59240;51.370;-0.486;2022-10-22T00:30:20;100293.84;;;13.98;100.00
71424;BME280;59240;51.370;-0.486;2022-10-22T00:32:46;100294.69;;;13.98;100.00
71424;BME280;59240;51.370;-0.486;2022-10-22T00:35:13;100298.22;;;13.97;100.00
71424;BME280;59240;51.370;-0.486;2022-10-22T00:37:39;100301.75;;;13.96;100.00
71424;BME280;59240;51.370;-0.486;2022-10-22T00:40:06;100303.47;;;13.97;100.00
71424;BME280;59240;51.370;-0.486;2022-10-22T00:42:33;100300.25;;;13.90;100.00
71424;BME280;59240;51.370;-0.486;2022-10-22T00:50:53;100326.38;;;13.92;100.00
71424;BME280;59240;51.370;-0.486;2022-10-22T00:53:43;100301.31;;;13.86;100.00
71424;BME280;59240;51.370;-0.486;2022-10-22T00:56:11;100327.38;;;13.89;100.00
71424;BME280;59240;51.370;-0.486;2022-10-22T00:58:44;100317.88;;;13.87;100.00
71424;BME280;59240;51.370;-0.486;2022-10-22T01:01:16;100329.22;;;13.87;100.00
71424;BME280;59240;51.370;-0.486;2022-10-22T01:03:43;100336.22;;;13.87;100.00
71424;BME280;59240;51.370;-0.486;2022-10-22T01:06:15;100338.84;;;13.87;100.00
71424;BME280;59240;51.370;-0.486;2022-10-22T01:09:15;100349.41;;;13.84;100.00
71424;BME280;59240;51.370;-0.486;2022-10-22T01:11:58;100353.81;;;13.83;100.00
71424;BME280;59240;51.370;-0.486;2022-10-22T01:15:36;100345.09;;;13.83;100.00
71424;BME280;59240;51.370;-0.486;2022-10-22T01:18:07;100360.88;;;13.81;100.00
71424;BME280;59240;51.370;-0.486;2022-10-22T01:23:47;100380.13;;;13.80;100.00
71424;BME280;59240;51.370;-0.486;2022-10-22T01:29:39;100380.97;;;13.81;100.00
71424;BME280;59240;51.370;-0.486;2022-10-22T01:31:49;100380.25;;;13.77;100.00
71424;BME280;59240;51.370;-0.486;2022-10-22T01:34:18;100387.16;;;13.78;100.00
71424;BME280;59240;51.370;-0.486;2022-10-22T01:36:46;100385.53;;;13.76;100.00
71424;BME280;59240;51.370;-0.486;2022-10-22T01:39:14;100401.94;;;13.81;100.00
71424;BME280;59240;51.370;-0.486;2022-10-22T01:41:45;100395.94;;;13.77;100.00
71424;BME280;59240;51.370;-0.486;2022-10-22T01:44:25;100411.47;;;13.82;100.00
71424;BME280;59240;51.370;-0.486;2022-10-22T01:47:31;100401.94;;;13.81;100.00
71424;BME280;59240;51.370;-0.486;2022-10-22T01:53:04;100407.28;;;13.78;100.00
71424;BME280;59240;51.370;-0.486;2022-10-22T01:59:01;100409.97;;;13.76;100.00
71424;BME280;59240;51.370;-0.486;2022-10-22T02:04:37;100419.72;;;13.73;100.00
71424;BME280;59240;51.370;-0.486;2022-10-22T02:07:08;100425.00;;;13.71;100.00
71424;BME280;59240;51.370;-0.486;2022-10-22T02:09:36;100424.97;;;13.73;100.00
71424;BME280;59240;51.370;-0.486;2022-10-22T02:12:05;100438.94;;;13.72;100.00
71424;BME280;59240;51.370;-0.486;2022-10-22T02:14:36;100420.81;;;13.67;100.00
71424;BME280;59240;51.370;-0.486;2022-10-22T02:17:05;100441.50;;;13.73;100.00
71424;BME280;59240;51.370;-0.486;2022-10-22T02:22:06;100435.34;;;13.74;100.00
71424;BME280;59240;51.370;-0.486;2022-10-22T02:24:33;100445.91;;;13.73;100.00
71424;BME280;59240;51.370;-0.486;2022-10-22T02:27:00;100450.22;;;13.74;100.00
71424;BME280;59240;51.370;-0.486;2022-10-22T02:30:02;100454.59;;;13.73;100.00
71424;BME280;59240;51.370;-0.486;2022-10-22T02:32:34;100459.03;;;13.71;100.00
71424;BME280;59240;51.370;-0.486;2022-10-22T02:35:03;100457.22;;;13.73;100.00
71424;BME280;59240;51.370;-0.486;2022-10-22T02:37:31;100461.59;;;13.73;100.00
71424;BME280;59240;51.370;-0.486;2022-10-22T02:39:57;100456.38;;;13.73;100.00
71424;BME280;59240;51.370;-0.486;2022-10-22T02:42:25;100460.63;;;13.75;100.00
71424;BME280;59240;51.370;-0.486;2022-10-22T02:44:53;100461.59;;;13.73;100.00
71424;BME280;59240;51.370;-0.486;2022-10-22T02:47:20;100471.09;;;13.75;100.00
71424;BME280;59240;51.370;-0.486;2022-10-22T02:49:46;100468.53;;;13.74;100.00
71424;BME280;59240;51.370;-0.486;2022-10-22T02:52:13;100479.88;;;13.74;100.00
71424;BME280;59240;51.370;-0.486;2022-10-22T02:54:39;100487.78;;;13.73;100.00
71424;BME280;59240;51.370;-0.486;2022-10-22T02:57:06;100493.03;;;13.73;100.00
71424;BME280;59240;51.370;-0.486;2022-10-22T02:59:32;100488.88;;;13.67;100.00
71424;BME280;59240;51.370;-0.486;2022-10-22T03:01:59;100489.72;;;13.67;100.00
71424;BME280;59240;51.370;-0.486;2022-10-22T03:04:26;100501.91;;;13.68;100.00
71424;BME280;59240;51.370;-0.486;2022-10-22T03:06:52;100500.19;;;13.67;100.00
71424;BME280;59240;51.370;-0.486;2022-10-22T03:09:19;100509.75;;;13.68;100.00
71424;BME280;59240;51.370;-0.486;2022-10-22T03:11:50;100514.06;;;13.69;100.00
71424;BME280;59240;51.370;-0.486;2022-10-22T03:14:17;100522.84;;;13.68;100.00
71424;BME280;59240;51.370;-0.486;2022-10-22T03:16:43;100529.78;;;13.69;100.00
71424;BME280;59240;51.370;-0.486;2022-10-22T03:19:10;100525.53;;;13.67;100.00
71424;BME280;59240;51.370;-0.486;2022-10-22T03:21:40;100528.16;;;13.65;100.00
71424;BME280;59240;51.370;-0.486;2022-10-22T03:24:15;100540.47;;;13.63;100.00
71424;BME280;59240;51.370;-0.486;2022-10-22T03:26:44;100550.09;;;13.63;100.00
71424;BME280;59240;51.370;-0.486;2022-10-22T03:29:14;100552.00;;;13.59;100.00
71424;BME280;59240;51.370;-0.486;2022-10-22T03:31:40;100545.16;;;13.55;100.00
71424;BME280;59240;51.370;-0.486;2022-10-22T03:34:07;100544.38;;;13.53;100.00
71424;BME280;59240;51.370;-0.486;2022-10-22T03:36:34;100550.69;;;13.48;100.00
71424;BME280;59240;51.370;-0.486;2022-10-22T03:39:01;100553.47;;;13.43;100.00
71424;BME280;59240;51.370;-0.486;2022-10-22T03:41:28;100569.28;;;13.40;100.00
71424;BME280;59240;51.370;-0.486;2022-10-22T03:43:54;100566.91;;;13.34;100.00
71424;BME280;59240;51.370;-0.486;2022-10-22T03:46:21;100569.72;;;13.28;100.00
71424;BME280;59240;51.370;-0.486;2022-10-22T03:48:47;100578.59;;;13.24;100.00
71424;BME280;59240;51.370;-0.486;2022-10-22T03:51:14;100587.44;;;13.20;100.00
71424;BME280;59240;51.370;-0.486;2022-10-22T03:53:40;100585.81;;;13.15;100.00
71424;BME280;59240;51.370;-0.486;2022-10-22T03:56:10;100580.81;;;13.09;100.00
71424;BME280;59240;51.370;-0.486;2022-10-22T03:58:39;100593.22;;;13.04;100.00
71424;BME280;59240;51.370;-0.486;2022-10-22T04:01:11;100598.66;;;12.98;100.00
71424;BME280;59240;51.370;-0.486;2022-10-22T04:03:38;100594.56;;;12.90;100.00
71424;BME280;59240;51.370;-0.486;2022-10-22T04:06:08;100597.38;;;12.85;100.00
71424;BME280;59240;51.370;-0.486;2022-10-22T04:08:35;100617.56;;;12.80;100.00
71424;BME280;59240;51.370;-0.486;2022-10-22T04:11:02;100611.56;;;12.78;100.00
71424;BME280;59240;51.370;-0.486;2022-10-22T04:13:28;100615.28;;;12.71;100.00
71424;BME280;59240;51.370;-0.486;2022-10-22T04:15:55;100620.59;;;12.68;100.00
71424;BME280;59240;51.370;-0.486;2022-10-22T04:18:22;100615.56;;;12.62;100.00
71424;BME280;59240;51.370;-0.486;2022-10-22T04:20:50;100621.81;;;12.57;100.00
71424;BME280;59240;51.370;-0.486;2022-10-22T04:23:17;100629.00;;;12.51;100.00
71424;BME280;59240;51.370;-0.486;2022-10-22T04:25:43;100632.59;;;12.47;100.00
71424;BME280;59240;51.370;-0.486;2022-10-22T04:28:10;100622.47;;;12.38;100.00
71424;BME280;59240;51.370;-0.486;2022-10-22T04:30:36;100626.13;;;12.32;100.00
71424;BME280;59240;51.370;-0.486;2022-10-22T04:33:03;100638.19;;;12.36;100.00
71424;BME280;59240;51.370;-0.486;2022-10-22T04:35:29;100641.78;;;12.32;100.00
71424;BME280;59240;51.370;-0.486;2022-10-22T04:37:56;100641.00;;;12.30;100.00
71424;BME280;59240;51.370;-0.486;2022-10-22T04:40:23;100641.91;;;12.27;100.00
71424;BME280;59240;51.370;-0.486;2022-10-22T04:42:49;100649.00;;;12.24;100.00
71424;BME280;59240;51.370;-0.486;2022-10-22T04:45:16;100641.47;;;12.15;100.00
71424;BME280;59240;51.370;-0.486;2022-10-22T04:47:42;100652.78;;;12.15;100.00
71424;BME280;59240;51.370;-0.486;2022-10-22T04:50:09;100660.72;;;12.11;100.00
71424;BME280;59240;51.370;-0.486;2022-10-22T04:52:35;100652.13;;;12.07;100.00
71424;BME280;59240;51.370;-0.486;2022-10-22T04:55:02;100655.63;;;12.06;100.00
71424;BME280;59240;51.370;-0.486;2022-10-22T04:57:29;100658.34;;;12.03;100.00
71424;BME280;59240;51.370;-0.486;2022-10-22T04:59:56;100665.41;;;11.99;100.00
71424;BME280;59240;51.370;-0.486;2022-10-22T05:02:23;100671.63;;;11.95;100.00
71424;BME280;59240;51.370;-0.486;2022-10-22T05:04:49;100666.50;;;11.92;100.00
71424;BME280;59240;51.370;-0.486;2022-10-22T05:07:17;100666.66;;;11.86;100.00
71424;BME280;59240;51.370;-0.486;2022-10-22T05:09:43;100682.31;;;11.86;100.00
71424;BME280;59240;51.370;-0.486;2022-10-22T05:12:10;100679.06;;;11.78;100.00
71424;BME280;59240;51.370;-0.486;2022-10-22T05:14:36;100684.28;;;11.78;100.00
71424;BME280;59240;51.370;-0.486;2022-10-22T05:17:09;100693.09;;;11.74;100.00
71424;BME280;59240;51.370;-0.486;2022-10-22T05:19:36;100695.84;;;11.69;100.00
71424;BME280;59240;51.370;-0.486;2022-10-22T05:22:03;100707.13;;;11.70;100.00
71424;BME280;59240;51.370;-0.486;2022-10-22T05:24:31;100708.94;;;11.66;100.00
71424;BME280;59240;51.370;-0.486;2022-10-22T05:26:59;100709.09;;;11.62;100.00
71424;BME280;59240;51.370;-0.486;2022-10-22T05:29:26;100710.13;;;11.56;100.00
71424;BME280;59240;51.370;-0.486;2022-10-22T05:31:53;100710.22;;;11.51;100.00
71424;BME280;59240;51.370;-0.486;2022-10-22T05:34:19;100723.38;;;11.48;99.79
71424;BME280;59240;51.370;-0.486;2022-10-22T05:36:46;100710.44;;;11.44;100.00
71424;BME280;59240;51.370;-0.486;2022-10-22T05:39:13;100715.81;;;11.38;100.00
71424;BME280;59240;51.370;-0.486;2022-10-22T05:41:39;100724.59;;;11.35;100.00
71424;BME280;59240;51.370;-0.486;2022-10-22T05:44:06;100722.94;;;11.31;100.00
71424;BME280;59240;51.370;-0.486;2022-10-22T05:46:34;100730.84;;;11.28;100.00
71424;BME280;59240;51.370;-0.486;2022-10-22T05:49:03;100736.22;;;11.22;100.00
71424;BME280;59240;51.370;-0.486;2022-10-22T05:51:32;100733.66;;;11.20;99.91
71424;BME280;59240;51.370;-0.486;2022-10-22T05:54:01;100736.38;;;11.16;99.57
71424;BME280;59240;51.370;-0.486;2022-10-22T05:56:29;100741.75;;;11.10;99.85
71424;BME280;59240;51.370;-0.486;2022-10-22T05:58:57;100748.75;;;11.08;100.00
71424;BME280;59240;51.370;-0.486;2022-10-22T06:01:27;100753.16;;;11.04;100.00
71424;BME280;59240;51.370;-0.486;2022-10-22T06:03:56;100755.00;;;11.01;100.00
71424;BME280;59240;51.370;-0.486;2022-10-22T06:09:22;100761.25;;;10.93;100.00
71424;BME280;59240;51.370;-0.486;2022-10-22T06:11:50;100763.09;;;10.88;100.00
71424;BME280;59240;51.370;-0.486;2022-10-22T06:14:18;100770.13;;;10.86;100.00
71424;BME280;59240;51.370;-0.486;2022-10-22T06:16:45;100758.03;;;10.82;99.77
71424;BME280;59240;51.370;-0.486;2022-10-22T06:19:13;100773.66;;;10.82;100.00
71424;BME280;59240;51.370;-0.486;2022-10-22T06:21:40;100773.66;;;10.82;100.00
71424;BME280;59240;51.370;-0.486;2022-10-22T06:24:08;100775.47;;;10.80;100.00
71424;BME280;59240;51.370;-0.486;2022-10-22T06:26:35;100781.53;;;10.81;100.00
71424;BME280;59240;51.370;-0.486;2022-10-22T06:29:02;100782.38;;;10.81;100.00
71424;BME280;59240;51.370;-0.486;2022-10-22T06:31:29;100787.69;;;10.78;100.00
71424;BME280;59240;51.370;-0.486;2022-10-22T06:34:03;100792.00;;;10.79;100.00
71424;BME280;59240;51.370;-0.486;2022-10-22T06:36:31;100796.31;;;10.80;100.00
71424;BME280;59240;51.370;-0.486;2022-10-22T06:38:57;100805.88;;;10.80;100.00
71424;BME280;59240;51.370;-0.486;2022-10-22T06:41:24;100787.69;;;10.77;100.00
71424;BME280;59240;51.370;-0.486;2022-10-22T06:43:55;100802.47;;;10.78;100.00
71424;BME280;59240;51.370;-0.486;2022-10-22T06:46:24;100801.53;;;10.80;100.00
71424;BME280;59240;51.370;-0.486;2022-10-22T06:48:55;100808.44;;;10.81;100.00
71424;BME280;59240;51.370;-0.486;2022-10-22T06:51:22;100817.94;;;10.84;100.00
71424;BME280;59240;51.370;-0.486;2022-10-22T06:53:49;100829.25;;;10.83;100.00
71424;BME280;59240;51.370;-0.486;2022-10-22T06:56:18;100830.09;;;10.85;100.00
71424;BME280;59240;51.370;-0.486;2022-10-22T06:58:49;100843.00;;;10.89;100.00
71424;BME280;59240;51.370;-0.486;2022-10-22T07:01:18;100844.72;;;10.90;100.00
71424;BME280;59240;51.370;-0.486;2022-10-22T07:03:45;100851.63;;;10.93;100.00
71424;BME280;59240;51.370;-0.486;2022-10-22T07:06:13;100853.34;;;10.94;100.00
71424;BME280;59240;51.370;-0.486;2022-10-22T07:08:40;100855.00;;;10.96;100.00
71424;BME280;59240;51.370;-0.486;2022-10-22T07:11:09;100862.78;;;11.00;100.00
71424;BME280;59240;51.370;-0.486;2022-10-22T07:13:37;100866.16;;;11.03;100.00
71424;BME280;59240;51.370;-0.486;2022-10-22T07:16:06;100872.19;;;11.07;100.00
71424;BME280;59240;51.370;-0.486;2022-10-22T07:18:33;100871.19;;;11.11;100.00
71424;BME280;59240;51.370;-0.486;2022-10-22T07:21:01;100871.25;;;11.09;100.00
71424;BME280;59240;51.370;-0.486;2022-10-22T07:23:28;100878.84;;;11.20;100.00
71424;BME280;59240;51.370;-0.486;2022-10-22T07:25:54;100883.97;;;11.23;100.00
71424;BME280;59240;51.370;-0.486;2022-10-22T07:28:26;100891.69;;;11.28;100.00
71424;BME280;59240;51.370;-0.486;2022-10-22T07:30:53;100881.25;;;11.28;100.00
71424;BME280;59240;51.370;-0.486;2022-10-22T07:33:20;100904.53;;;11.35;100.00
71424;BME280;59240;51.370;-0.486;2022-10-22T07:35:47;100902.75;;;11.37;100.00
71424;BME280;59240;51.370;-0.486;2022-10-22T07:38:13;100904.47;;;11.38;100.00
71424;BME280;59240;51.370;-0.486;2022-10-22T07:40:40;100894.13;;;11.35;100.00
71424;BME280;59240;51.370;-0.486;2022-10-22T07:43:06;100911.34;;;11.42;100.00
71424;BME280;59240;51.370;-0.486;2022-10-22T07:45:33;100907.91;;;11.40;100.00
71424;BME280;59240;51.370;-0.486;2022-10-22T07:47:59;100919.97;;;11.44;100.00
71424;BME280;59240;51.370;-0.486;2022-10-22T07:50:27;100916.47;;;11.45;100.00
71424;BME280;59240;51.370;-0.486;2022-10-22T07:52:53;100928.56;;;11.49;100.00
71424;BME280;59240;51.370;-0.486;2022-10-22T07:55:23;100921.63;;;11.48;100.00
71424;BME280;59240;51.370;-0.486;2022-10-22T07:57:50;100931.94;;;11.55;100.00
71424;BME280;59240;51.370;-0.486;2022-10-22T08:00:17;100941.38;;;11.59;100.00
71424;BME280;59240;51.370;-0.486;2022-10-22T08:02:48;100933.44;;;11.63;100.00
71424;BME280;59240;51.370;-0.486;2022-10-22T08:05:15;100943.84;;;11.65;100.00
71424;BME280;59240;51.370;-0.486;2022-10-22T08:07:42;100947.22;;;11.70;100.00
71424;BME280;59240;51.370;-0.486;2022-10-22T08:10:10;100945.41;;;11.72;100.00
71424;BME280;59240;51.370;-0.486;2022-10-22T08:12:38;100945.34;;;11.75;100.00
71424;BME280;59240;51.370;-0.486;2022-10-22T08:15:05;100947.91;;;11.76;100.00
71424;BME280;59240;51.370;-0.486;2022-10-22T08:17:32;100946.13;;;11.78;100.00
71424;BME280;59240;51.370;-0.486;2022-10-22T08:19:59;100948.75;;;11.78;100.00
71424;BME280;59240;51.370;-0.486;2022-10-22T08:22:25;100948.69;;;11.80;100.00
71424;BME280;59240;51.370;-0.486;2022-10-22T08:24:52;100946.06;;;11.83;100.00
71424;BME280;59240;51.370;-0.486;2022-10-22T08:27:19;100948.56;;;11.86;100.00
71424;BME280;59240;51.370;-0.486;2022-10-22T08:29:45;100958.09;;;11.89;100.00
71424;BME280;59240;51.370;-0.486;2022-10-22T08:32:12;100966.72;;;11.92;100.00
71424;BME280;59240;51.370;-0.486;2022-10-22T08:34:38;100971.88;;;11.95;100.00
71424;BME280;59240;51.370;-0.486;2022-10-22T08:37:05;100964.94;;;11.93;100.00
71424;BME280;59240;51.370;-0.486;2022-10-22T08:39:33;100971.72;;;12.01;100.00
71424;BME280;59240;51.370;-0.486;2022-10-22T08:50:43;100975.00;;;12.10;100.00
71424;BME280;59240;51.370;-0.486;2022-10-22T08:53:16;100977.50;;;12.13;100.00
71424;BME280;59240;51.370;-0.486;2022-10-22T08:55:44;100985.25;;;12.17;100.00
71424;BME280;59240;51.370;-0.486;2022-10-22T08:58:19;100989.38;;;12.26;100.00
71424;BME280;59240;51.370;-0.486;2022-10-22T09:03:40;100987.34;;;12.37;100.00
71424;BME280;59240;51.370;-0.486;2022-10-22T09:06:14;100992.41;;;12.43;100.00
71424;BME280;59240;51.370;-0.486;2022-10-22T09:08:42;101001.81;;;12.50;100.00
71424;BME280;59240;51.370;-0.486;2022-10-22T09:13:40;101004.13;;;12.61;100.00
71424;BME280;59240;51.370;-0.486;2022-10-22T09:16:13;101012.66;;;12.68;100.00
71424;BME280;59240;51.370;-0.486;2022-10-22T09:18:56;101012.44;;;12.75;100.00
71424;BME280;59240;51.370;-0.486;2022-10-22T09:24:30;101004.88;;;12.97;100.00
71424;BME280;59240;51.370;-0.486;2022-10-22T09:27:00;101018.44;;;13.11;100.00
71424;BME280;59240;51.370;-0.486;2022-10-22T09:29:32;101019.63;;;13.31;100.00
71424;BME280;59240;51.370;-0.486;2022-10-22T09:31:59;101013.78;;;13.52;100.00
71424;BME280;59240;51.370;-0.486;2022-10-22T09:34:27;101014.94;;;13.70;100.00
71424;BME280;59240;51.370;-0.486;2022-10-22T09:37:03;101019.56;;;13.90;100.00
71424;BME280;59240;51.370;-0.486;2022-10-22T09:39:33;101010.28;;;14.06;100.00
71424;BME280;59240;51.370;-0.486;2022-10-22T09:42:00;101008.91;;;14.22;100.00
71424;BME280;59240;51.370;-0.486;2022-10-22T09:44:26;101017.88;;;14.40;98.93
71424;BME280;59240;51.370;-0.486;2022-10-22T09:46:53;101001.06;;;14.47;99.10
71424;BME280;59240;51.370;-0.486;2022-10-22T09:49:23;101018.53;;;14.73;100.00
71424;BME280;59240;51.370;-0.486;2022-10-22T09:51:57;101018.72;;;14.92;99.87
71424;BME280;59240;51.370;-0.486;2022-10-22T09:54:36;101021.53;;;15.11;98.34
71424;BME280;59240;51.370;-0.486;2022-10-22T09:57:15;101027.13;;;15.25;98.53
71424;BME280;59240;51.370;-0.486;2022-10-22T09:59:46;101017.88;;;15.39;97.35
71424;BME280;59240;51.370;-0.486;2022-10-22T10:02:22;101013.88;;;15.52;95.84
71424;BME280;59240;51.370;-0.486;2022-10-22T10:05:05;101015.00;;;15.68;97.11
71424;BME280;59240;51.370;-0.486;2022-10-22T10:07:33;101016.16;;;15.83;95.62
71424;BME280;59240;51.370;-0.486;2022-10-22T10:10:00;101009.69;;;15.92;93.11
71424;BME280;59240;51.370;-0.486;2022-10-22T10:12:47;101025.69;;;16.07;99.23
71424;BME280;59240;51.370;-0.486;2022-10-22T10:15:32;101019.88;;;16.21;98.39
71424;BME280;59240;51.370;-0.486;2022-10-22T10:23:38;101025.00;;;16.45;91.58
71424;BME280;59240;51.370;-0.486;2022-10-22T10:26:19;101025.41;;;16.35;93.94
71424;BME280;59240;51.370;-0.486;2022-10-22T10:34:08;101047.25;;;16.16;94.06
71424;BME280;59240;51.370;-0.486;2022-10-22T10:42:13;101046.78;;;16.06;94.53
71424;BME280;59240;51.370;-0.486;2022-10-22T10:44:52;101051.13;;;16.07;89.76
71424;BME280;59240;51.370;-0.486;2022-10-22T10:53:24;101056.69;;;16.21;93.16
71424;BME280;59240;51.370;-0.486;2022-10-22T10:56:22;101054.69;;;16.26;98.03
71424;BME280;59240;51.370;-0.486;2022-10-22T10:59:46;101035.50;;;16.24;93.55
71424;BME280;59240;51.370;-0.486;2022-10-22T11:02:39;101043.66;;;16.38;99.58
71424;BME280;59240;51.370;-0.486;2022-10-22T11:08:20;101036.47;;;16.44;90.38
71424;BME280;59240;51.370;-0.486;2022-10-22T11:10:51;101042.38;;;16.49;90.32
71424;BME280;59240;51.370;-0.486;2022-10-22T11:18:37;101029.88;;;16.54;94.10
71424;BME280;59240;51.370;-0.486;2022-10-22T11:21:22;101035.19;;;16.52;95.80
71424;BME280;59240;51.370;-0.486;2022-10-22T11:24:25;101035.94;;;16.56;93.72
71424;BME280;59240;51.370;-0.486;2022-10-22T11:26:57;101035.19;;;16.52;88.86
71424;BME280;59240;51.370;-0.486;2022-10-22T11:29:33;101029.22;;;16.49;90.52
71424;BME280;59240;51.370;-0.486;2022-10-22T11:32:01;101025.69;;;16.50;87.94
71424;BME280;59240;51.370;-0.486;2022-10-22T11:34:50;101028.41;;;16.47;93.17
71424;BME280;59240;51.370;-0.486;2022-10-22T11:37:21;101026.59;;;16.49;87.47
71424;BME280;59240;51.370;-0.486;2022-10-22T11:45:05;101038.78;;;16.92;87.90
71424;BME280;59240;51.370;-0.486;2022-10-22T11:50:27;101026.06;;;17.02;86.73
71424;BME280;59240;51.370;-0.486;2022-10-22T11:55:56;101020.66;;;17.05;93.92
71424;BME280;59240;51.370;-0.486;2022-10-22T12:00:51;101029.69;;;16.99;85.51
71424;BME280;59240;51.370;-0.486;2022-10-22T12:14:00;101024.03;;;17.27;92.13
71424;BME280;59240;51.370;-0.486;2022-10-22T12:24:22;101033.34;;;17.34;84.65
71424;BME280;59240;51.370;-0.486;2022-10-22T12:26:49;101021.28;;;17.30;84.08
71424;BME280;59240;51.370;-0.486;2022-10-22T12:29:20;101028.56;;;17.42;85.71
71424;BME280;59240;51.370;-0.486;2022-10-22T12:31:52;101028.72;;;17.58;83.91
71424;BME280;59240;51.370;-0.486;2022-10-22T12:34:21;101025.72;;;17.66;86.59
71424;BME280;59240;51.370;-0.486;2022-10-22T12:36:51;101017.75;;;17.67;83.34
71424;BME280;59240;51.370;-0.486;2022-10-22T12:39:24;101011.78;;;17.64;82.68
71424;BME280;59240;51.370;-0.486;2022-10-22T12:41:52;101009.81;;;17.50;81.87
71424;BME280;59240;51.370;-0.486;2022-10-22T12:44:19;101011.72;;;17.46;81.37
71424;BME280;59240;51.370;-0.486;2022-10-22T12:46:47;101001.38;;;17.42;82.89
71424;BME280;59240;51.370;-0.486;2022-10-22T12:49:24;101023.19;;;17.45;83.99
71424;BME280;59240;51.370;-0.486;2022-10-22T12:51:54;101016.63;;;17.35;82.15
71424;BME280;59240;51.370;-0.486;2022-10-22T12:54:28;101016.91;;;17.29;83.40
71424;BME280;59240;51.370;-0.486;2022-10-22T12:57:00;101006.97;;;17.17;82.94
71424;BME280;59240;51.370;-0.486;2022-10-22T12:59:31;101022.59;;;17.20;82.94
71424;BME280;59240;51.370;-0.486;2022-10-22T13:02:00;101021.31;;;17.10;83.01
71424;BME280;59240;51.370;-0.486;2022-10-22T13:04:33;101002.94;;;16.89;85.25
71424;BME280;59240;51.370;-0.486;2022-10-22T13:12:34;101024.63;;;16.74;87.34
71424;BME280;59240;51.370;-0.486;2022-10-22T13:15:37;101028.34;;;16.70;93.84
71424;BME280;59240;51.370;-0.486;2022-10-22T13:18:15;101023.31;;;16.64;91.98
71424;BME280;59240;51.370;-0.486;2022-10-22T13:20:56;101036.38;;;16.65;84.47
71424;BME280;59240;51.370;-0.486;2022-10-22T13:23:25;101031.47;;;16.58;84.95
71424;BME280;59240;51.370;-0.486;2022-10-22T13:28:30;101013.03;;;16.37;85.14
71424;BME280;59240;51.370;-0.486;2022-10-22T13:31:00;101015.94;;;16.31;84.16
71424;BME280;59240;51.370;-0.486;2022-10-22T13:33:35;101033.28;;;16.35;84.78
71424;BME280;59240;51.370;-0.486;2022-10-22T13:36:03;101028.13;;;16.34;84.94
71424;BME280;59240;51.370;-0.486;2022-10-22T13:38:30;101018.50;;;16.33;82.48
71424;BME280;59240;51.370;-0.486;2022-10-22T13:40:57;101029.88;;;16.33;83.68
71424;BME280;59240;51.370;-0.486;2022-10-22T13:43:24;101026.38;;;16.33;83.61
71424;BME280;59240;51.370;-0.486;2022-10-22T13:45:53;101020.09;;;16.37;85.79
71424;BME280;59240;51.370;-0.486;2022-10-22T13:48:24;101026.09;;;16.40;88.17
71424;BME280;59240;51.370;-0.486;2022-10-22T13:50:59;100997.59;;;16.30;84.06
71424;BME280;59240;51.370;-0.486;2022-10-22T13:53:27;101003.44;;;16.36;85.25
71424;BME280;59240;51.370;-0.486;2022-10-22T13:55:58;101005.91;;;16.41;84.31
71424;BME280;59240;51.370;-0.486;2022-10-22T13:58:28;101009.50;;;16.38;84.03
71424;BME280;59240;51.370;-0.486;2022-10-22T14:01:02;101019.22;;;16.36;84.79
71424;BME280;59240;51.370;-0.486;2022-10-22T14:03:40;101002.25;;;16.23;84.85
71424;BME280;59240;51.370;-0.486;2022-10-22T14:06:11;101006.47;;;16.27;89.36
71424;BME280;59240;51.370;-0.486;2022-10-22T14:08:47;101004.63;;;16.29;86.30
71424;BME280;59240;51.370;-0.486;2022-10-22T14:11:18;101008.03;;;16.31;86.27
71424;BME280;59240;51.370;-0.486;2022-10-22T14:13:46;100991.88;;;16.20;85.94
71424;BME280;59240;51.370;-0.486;2022-10-22T14:16:22;101015.69;;;16.37;89.02
71424;BME280;59240;51.370;-0.486;2022-10-22T14:18:50;101001.34;;;16.24;85.94
71424;BME280;59240;51.370;-0.486;2022-10-22T14:21:19;100991.03;;;16.20;86.67
71424;BME280;59240;51.370;-0.486;2022-10-22T14:23:48;101001.41;;;16.23;85.61
71424;BME280;59240;51.370;-0.486;2022-10-22T14:26:25;101015.94;;;16.31;92.89
71424;BME280;59240;51.370;-0.486;2022-10-22T14:29:01;101019.09;;;16.39;90.57
71424;BME280;59240;51.370;-0.486;2022-10-22T14:31:38;101014.13;;;16.33;87.10
71424;BME280;59240;51.370;-0.486;2022-10-22T14:34:14;101012.25;;;16.35;87.08
71424;BME280;59240;51.370;-0.486;2022-10-22T14:36:42;101019.94;;;16.40;86.51
71424;BME280;59240;51.370;-0.486;2022-10-22T14:39:10;101015.41;;;16.44;86.32
71424;BME280;59240;51.370;-0.486;2022-10-22T14:41:37;100998.06;;;16.39;87.11
71424;BME280;59240;51.370;-0.486;2022-10-22T14:44:06;101003.88;;;16.48;86.16